sensor_id;sensor_type;location;lat;lon;timestamp;temperature;humidity
11784;DHT22;5949;40.386;18.150;2022-07-17T00:01:25;27.70;99.90
11784;DHT22;5949;40.386;18.150;2022-07-17T00:03:53;27.80;99.90
11784;DHT22;5949;40.386;18.150;2022-07-17T00:06:20;27.80;99.90
11784;DHT22;5949;40.386;18.150;2022-07-17T00:08:48;27.90;99.90
11784;DHT22;5949;40.386;18.150;2022-07-17T00:11:15;27.90;99.90
11784;DHT22;5949;40.386;18.150;2022-07-17T00:13:43;28.00;99.90
11784;DHT22;5949;40.386;18.150;2022-07-17T00:16:10;27.90;99.90
11784;DHT22;5949;40.386;18.150;2022-07-17T00:18:39;27.90;99.90
11784;DHT22;5949;40.386;18.150;2022-07-17T00:21:07;27.80;99.90
11784;DHT22;5949;40.386;18.150;2022-07-17T00:23:34;27.80;99.90
11784;DHT22;5949;40.386;18.150;2022-07-17T00:26:02;27.70;99.90
11784;DHT22;5949;40.386;18.150;2022-07-17T00:28:29;27.60;99.90
11784;DHT22;5949;40.386;18.150;2022-07-17T00:30:57;27.60;99.90
11784;DHT22;5949;40.386;18.150;2022-07-17T00:33:24;27.70;99.90
11784;DHT22;5949;40.386;18.150;2022-07-17T00:35:53;27.70;99.90
11784;DHT22;5949;40.386;18.150;2022-07-17T00:38:20;27.70;99.90
11784;DHT22;5949;40.386;18.150;2022-07-17T00:40:48;27.70;99.90
11784;DHT22;5949;40.386;18.150;2022-07-17T00:43:15;27.70;99.90
11784;DHT22;5949;40.386;18.150;2022-07-17T00:45:43;27.70;99.90
11784;DHT22;5949;40.386;18.150;2022-07-17T00:48:11;27.80;99.90
11784;DHT22;5949;40.386;18.150;2022-07-17T00:50:40;27.70;99.90
11784;DHT22;5949;40.386;18.150;2022-07-17T00:53:09;27.60;99.90
11784;DHT22;5949;40.386;18.150;2022-07-17T00:55:37;27.60;99.90
11784;DHT22;5949;40.386;18.150;2022-07-17T00:58:08;27.50;99.90
11784;DHT22;5949;40.386;18.150;2022-07-17T01:00:36;27.50;99.90
11784;DHT22;5949;40.386;18.150;2022-07-17T01:03:04;27.40;99.90
11784;DHT22;5949;40.386;18.150;2022-07-17T01:05:31;27.50;99.90
11784;DHT22;5949;40.386;18.150;2022-07-17T01:07:59;27.50;99.90
11784;DHT22;5949;40.386;18.150;2022-07-17T01:10:28;27.60;99.90
11784;DHT22;5949;40.386;18.150;2022-07-17T01:12:55;27.60;99.90
11784;DHT22;5949;40.386;18.150;2022-07-17T01:15:23;27.60;99.90
11784;DHT22;5949;40.386;18.150;2022-07-17T01:17:50;27.60;99.90
11784;DHT22;5949;40.386;18.150;2022-07-17T01:20:18;27.60;99.90
11784;DHT22;5949;40.386;18.150;2022-07-17T01:22:49;27.50;99.90
11784;DHT22;5949;40.386;18.150;2022-07-17T01:25:22;27.60;99.90
11784;DHT22;5949;40.386;18.150;2022-07-17T01:27:49;27.50;99.90
11784;DHT22;5949;40.386;18.150;2022-07-17T01:30:17;27.50;99.90
11784;DHT22;5949;40.386;18.150;2022-07-17T01:32:45;27.50;99.90
11784;DHT22;5949;40.386;18.150;2022-07-17T01:35:14;27.50;99.90
11784;DHT22;5949;40.386;18.150;2022-07-17T01:37:42;27.40;99.90
11784;DHT22;5949;40.386;18.150;2022-07-17T01:40:13;27.40;99.90
11784;DHT22;5949;40.386;18.150;2022-07-17T01:42:43;27.40;99.90
11784;DHT22;5949;40.386;18.150;2022-07-17T01:45:11;27.40;99.90
11784;DHT22;5949;40.386;18.150;2022-07-17T01:47:40;27.40;99.90
11784;DHT22;5949;40.386;18.150;2022-07-17T01:50:09;27.40;99.90
11784;DHT22;5949;40.386;18.150;2022-07-17T01:52:38;27.20;99.90
11784;DHT22;5949;40.386;18.150;2022-07-17T01:55:07;27.10;99.90
11784;DHT22;5949;40.386;18.150;2022-07-17T01:57:37;26.90;99.90
11784;DHT22;5949;40.386;18.150;2022-07-17T02:00:07;26.80;99.90
11784;DHT22;5949;40.386;18.150;2022-07-17T02:02:35;26.70;99.90
11784;DHT22;5949;40.386;18.150;2022-07-17T02:05:03;26.60;99.90
11784;DHT22;5949;40.386;18.150;2022-07-17T02:07:31;26.70;99.90
11784;DHT22;5949;40.386;18.150;2022-07-17T02:09:59;26.80;99.90
11784;DHT22;5949;40.386;18.150;2022-07-17T02:12:26;26.90;99.90
11784;DHT22;5949;40.386;18.150;2022-07-17T02:14:55;26.80;99.90
11784;DHT22;5949;40.386;18.150;2022-07-17T02:17:23;26.50;99.90
11784;DHT22;5949;40.386;18.150;2022-07-17T02:19:50;26.30;99.90
11784;DHT22;5949;40.386;18.150;2022-07-17T02:22:18;26.10;99.90
11784;DHT22;5949;40.386;18.150;2022-07-17T02:24:45;26.10;99.90
11784;DHT22;5949;40.386;18.150;2022-07-17T02:27:13;26.10;99.90
11784;DHT22;5949;40.386;18.150;2022-07-17T02:29:40;26.10;99.90
11784;DHT22;5949;40.386;18.150;2022-07-17T02:32:09;26.20;99.90
11784;DHT22;5949;40.386;18.150;2022-07-17T02:34:37;26.10;99.90
11784;DHT22;5949;40.386;18.150;2022-07-17T02:37:04;26.10;99.90
11784;DHT22;5949;40.386;18.150;2022-07-17T02:39:32;26.10;99.90
11784;DHT22;5949;40.386;18.150;2022-07-17T02:42:00;26.00;99.90
11784;DHT22;5949;40.386;18.150;2022-07-17T02:44:27;26.10;99.90
11784;DHT22;5949;40.386;18.150;2022-07-17T02:46:54;26.10;99.90
11784;DHT22;5949;40.386;18.150;2022-07-17T02:49:23;26.20;99.90
11784;DHT22;5949;40.386;18.150;2022-07-17T02:51:51;26.10;99.90
11784;DHT22;5949;40.386;18.150;2022-07-17T02:54:18;26.10;99.90
11784;DHT22;5949;40.386;18.150;2022-07-17T02:56:46;26.10;99.90
11784;DHT22;5949;40.386;18.150;2022-07-17T02:59:13;26.00;99.90
11784;DHT22;5949;40.386;18.150;2022-07-17T03:01:41;26.00;99.90
11784;DHT22;5949;40.386;18.150;2022-07-17T03:04:08;26.00;99.90
11784;DHT22;5949;40.386;18.150;2022-07-17T03:06:37;25.90;99.90
11784;DHT22;5949;40.386;18.150;2022-07-17T03:09:04;25.90;99.90
11784;DHT22;5949;40.386;18.150;2022-07-17T03:11:32;25.80;99.90
11784;DHT22;5949;40.386;18.150;2022-07-17T03:13:59;25.60;99.90
11784;DHT22;5949;40.386;18.150;2022-07-17T03:16:27;25.60;99.90
11784;DHT22;5949;40.386;18.150;2022-07-17T03:18:54;25.60;99.90
11784;DHT22;5949;40.386;18.150;2022-07-17T03:21:22;25.60;99.90
11784;DHT22;5949;40.386;18.150;2022-07-17T03:23:51;25.50;99.90
11784;DHT22;5949;40.386;18.150;2022-07-17T03:26:18;25.60;99.90
11784;DHT22;5949;40.386;18.150;2022-07-17T03:28:46;25.40;99.90
11784;DHT22;5949;40.386;18.150;2022-07-17T03:31:13;25.50;99.90
11784;DHT22;5949;40.386;18.150;2022-07-17T03:33:41;25.40;99.90
11784;DHT22;5949;40.386;18.150;2022-07-17T03:36:09;25.30;99.90
11784;DHT22;5949;40.386;18.150;2022-07-17T03:38:36;25.40;99.90
11784;DHT22;5949;40.386;18.150;2022-07-17T03:41:05;25.60;99.90
11784;DHT22;5949;40.386;18.150;2022-07-17T03:43:33;25.40;99.90
11784;DHT22;5949;40.386;18.150;2022-07-17T03:46:00;25.30;99.90
11784;DHT22;5949;40.386;18.150;2022-07-17T03:48:29;25.40;99.90
11784;DHT22;5949;40.386;18.150;2022-07-17T03:50:56;25.50;99.90
11784;DHT22;5949;40.386;18.150;2022-07-17T03:53:24;25.40;99.90
11784;DHT22;5949;40.386;18.150;2022-07-17T03:55:51;25.40;99.90
11784;DHT22;5949;40.386;18.150;2022-07-17T03:58:20;25.40;99.90
11784;DHT22;5949;40.386;18.150;2022-07-17T04:00:47;25.40;99.90
11784;DHT22;5949;40.386;18.150;2022-07-17T04:03:15;25.70;99.90
11784;DHT22;5949;40.386;18.150;2022-07-17T04:05:42;25.70;99.90
11784;DHT22;5949;40.386;18.150;2022-07-17T04:08:10;25.90;99.90
11784;DHT22;5949;40.386;18.150;2022-07-17T04:10:38;25.90;99.90
11784;DHT22;5949;40.386;18.150;2022-07-17T04:13:06;25.90;99.90
11784;DHT22;5949;40.386;18.150;2022-07-17T04:15:35;25.90;99.90
11784;DHT22;5949;40.386;18.150;2022-07-17T04:18:23;26.10;99.90
11784;DHT22;5949;40.386;18.150;2022-07-17T04:20:52;26.10;99.90
11784;DHT22;5949;40.386;18.150;2022-07-17T04:23:20;26.10;99.90
11784;DHT22;5949;40.386;18.150;2022-07-17T04:25:48;26.10;99.90
11784;DHT22;5949;40.386;18.150;2022-07-17T04:28:16;26.20;99.90
11784;DHT22;5949;40.386;18.150;2022-07-17T04:30:45;26.40;99.90
11784;DHT22;5949;40.386;18.150;2022-07-17T04:33:13;26.40;99.90
11784;DHT22;5949;40.386;18.150;2022-07-17T04:35:40;26.30;99.90
11784;DHT22;5949;40.386;18.150;2022-07-17T04:38:08;26.20;99.90
11784;DHT22;5949;40.386;18.150;2022-07-17T04:40:37;26.30;99.90
11784;DHT22;5949;40.386;18.150;2022-07-17T04:43:05;26.50;99.90
11784;DHT22;5949;40.386;18.150;2022-07-17T04:45:33;26.60;99.90
11784;DHT22;5949;40.386;18.150;2022-07-17T04:48:03;26.50;99.90
11784;DHT22;5949;40.386;18.150;2022-07-17T04:50:30;26.60;99.90
11784;DHT22;5949;40.386;18.150;2022-07-17T04:52:59;26.60;99.90
11784;DHT22;5949;40.386;18.150;2022-07-17T04:55:27;26.70;99.90
11784;DHT22;5949;40.386;18.150;2022-07-17T04:57:55;26.70;99.90
11784;DHT22;5949;40.386;18.150;2022-07-17T05:00:23;26.60;99.90
11784;DHT22;5949;40.386;18.150;2022-07-17T05:02:50;26.70;99.90
11784;DHT22;5949;40.386;18.150;2022-07-17T05:05:20;26.80;99.90
11784;DHT22;5949;40.386;18.150;2022-07-17T05:07:47;26.80;99.90
11784;DHT22;5949;40.386;18.150;2022-07-17T05:10:15;26.90;99.90
11784;DHT22;5949;40.386;18.150;2022-07-17T05:12:43;26.90;99.90
11784;DHT22;5949;40.386;18.150;2022-07-17T05:15:10;27.10;99.90
11784;DHT22;5949;40.386;18.150;2022-07-17T05:17:39;27.10;99.90
11784;DHT22;5949;40.386;18.150;2022-07-17T05:20:07;27.20;99.90
11784;DHT22;5949;40.386;18.150;2022-07-17T05:22:36;27.40;99.90
11784;DHT22;5949;40.386;18.150;2022-07-17T05:25:05;27.60;99.90
11784;DHT22;5949;40.386;18.150;2022-07-17T05:27:33;28.00;99.90
11784;DHT22;5949;40.386;18.150;2022-07-17T05:30:00;28.10;99.90
11784;DHT22;5949;40.386;18.150;2022-07-17T05:32:28;28.10;99.90
11784;DHT22;5949;40.386;18.150;2022-07-17T05:34:55;28.40;99.90
11784;DHT22;5949;40.386;18.150;2022-07-17T05:37:23;28.80;99.90
11784;DHT22;5949;40.386;18.150;2022-07-17T05:39:51;28.90;99.90
11784;DHT22;5949;40.386;18.150;2022-07-17T05:42:19;29.20;99.90
11784;DHT22;5949;40.386;18.150;2022-07-17T05:44:46;29.60;99.90
11784;DHT22;5949;40.386;18.150;2022-07-17T05:47:14;29.80;99.90
11784;DHT22;5949;40.386;18.150;2022-07-17T05:49:41;29.90;99.90
11784;DHT22;5949;40.386;18.150;2022-07-17T05:52:09;30.00;99.90
11784;DHT22;5949;40.386;18.150;2022-07-17T05:54:36;30.20;99.90
11784;DHT22;5949;40.386;18.150;2022-07-17T05:57:05;30.70;99.90
11784;DHT22;5949;40.386;18.150;2022-07-17T05:59:33;31.20;99.90
11784;DHT22;5949;40.386;18.150;2022-07-17T06:02:00;31.40;99.90
11784;DHT22;5949;40.386;18.150;2022-07-17T06:04:28;31.50;99.90
11784;DHT22;5949;40.386;18.150;2022-07-17T06:06:55;31.30;99.90
11784;DHT22;5949;40.386;18.150;2022-07-17T06:09:23;31.20;99.90
11784;DHT22;5949;40.386;18.150;2022-07-17T06:11:50;31.40;99.90
11784;DHT22;5949;40.386;18.150;2022-07-17T06:14:19;31.10;99.90
11784;DHT22;5949;40.386;18.150;2022-07-17T06:16:47;31.10;99.90
11784;DHT22;5949;40.386;18.150;2022-07-17T06:19:14;31.40;99.90
11784;DHT22;5949;40.386;18.150;2022-07-17T06:21:41;31.40;99.90
11784;DHT22;5949;40.386;18.150;2022-07-17T06:24:09;31.40;99.90
11784;DHT22;5949;40.386;18.150;2022-07-17T06:26:36;31.40;99.90
11784;DHT22;5949;40.386;18.150;2022-07-17T06:29:04;31.40;99.90
11784;DHT22;5949;40.386;18.150;2022-07-17T06:31:33;31.80;99.90
11784;DHT22;5949;40.386;18.150;2022-07-17T06:34:01;32.20;99.90
11784;DHT22;5949;40.386;18.150;2022-07-17T06:36:28;32.30;99.90
11784;DHT22;5949;40.386;18.150;2022-07-17T06:38:56;32.00;99.90
11784;DHT22;5949;40.386;18.150;2022-07-17T06:41:23;32.20;99.90
11784;DHT22;5949;40.386;18.150;2022-07-17T06:43:51;32.40;99.90
11784;DHT22;5949;40.386;18.150;2022-07-17T06:46:18;32.30;99.90
11784;DHT22;5949;40.386;18.150;2022-07-17T06:48:47;32.80;99.90
11784;DHT22;5949;40.386;18.150;2022-07-17T06:51:17;32.50;99.90
11784;DHT22;5949;40.386;18.150;2022-07-17T06:53:44;32.30;99.90
11784;DHT22;5949;40.386;18.150;2022-07-17T06:56:12;32.10;99.90
11784;DHT22;5949;40.386;18.150;2022-07-17T06:58:39;32.40;99.90
11784;DHT22;5949;40.386;18.150;2022-07-17T07:01:07;32.00;99.90
11784;DHT22;5949;40.386;18.150;2022-07-17T07:03:34;32.10;99.90
11784;DHT22;5949;40.386;18.150;2022-07-17T07:06:03;32.30;99.90
11784;DHT22;5949;40.386;18.150;2022-07-17T07:08:33;32.80;99.90
11784;DHT22;5949;40.386;18.150;2022-07-17T07:11:02;32.60;99.90
11784;DHT22;5949;40.386;18.150;2022-07-17T07:13:29;32.70;99.90
11784;DHT22;5949;40.386;18.150;2022-07-17T07:15:57;32.70;99.90
11784;DHT22;5949;40.386;18.150;2022-07-17T07:18:25;32.60;99.90
11784;DHT22;5949;40.386;18.150;2022-07-17T07:20:53;32.40;99.90
11784;DHT22;5949;40.386;18.150;2022-07-17T07:23:22;32.50;99.90
11784;DHT22;5949;40.386;18.150;2022-07-17T07:25:50;32.70;99.90
11784;DHT22;5949;40.386;18.150;2022-07-17T07:28:18;33.30;99.90
11784;DHT22;5949;40.386;18.150;2022-07-17T07:30:45;33.00;99.90
11784;DHT22;5949;40.386;18.150;2022-07-17T07:33:13;32.70;99.90
11784;DHT22;5949;40.386;18.150;2022-07-17T07:35:42;32.70;99.90
11784;DHT22;5949;40.386;18.150;2022-07-17T07:38:10;33.20;99.90
11784;DHT22;5949;40.386;18.150;2022-07-17T07:40:39;32.80;99.90
11784;DHT22;5949;40.386;18.150;2022-07-17T07:43:07;32.70;99.90
11784;DHT22;5949;40.386;18.150;2022-07-17T07:45:34;32.50;99.90
11784;DHT22;5949;40.386;18.150;2022-07-17T07:48:02;32.80;99.90
11784;DHT22;5949;40.386;18.150;2022-07-17T07:50:29;32.90;99.90
11784;DHT22;5949;40.386;18.150;2022-07-17T07:52:57;33.00;99.90
11784;DHT22;5949;40.386;18.150;2022-07-17T07:55:25;32.90;99.90
11784;DHT22;5949;40.386;18.150;2022-07-17T07:58:03;33.20;99.90
11784;DHT22;5949;40.386;18.150;2022-07-17T08:00:31;32.90;99.90
11784;DHT22;5949;40.386;18.150;2022-07-17T08:02:59;33.10;99.90
11784;DHT22;5949;40.386;18.150;2022-07-17T08:05:27;33.20;98.40
11784;DHT22;5949;40.386;18.150;2022-07-17T08:07:54;33.10;98.40
11784;DHT22;5949;40.386;18.150;2022-07-17T08:10:22;33.60;96.40
11784;DHT22;5949;40.386;18.150;2022-07-17T08:12:50;33.80;94.30
11784;DHT22;5949;40.386;18.150;2022-07-17T08:15:20;33.30;93.00
11784;DHT22;5949;40.386;18.150;2022-07-17T08:17:50;33.10;94.30
11784;DHT22;5949;40.386;18.150;2022-07-17T08:20:18;33.10;95.20
11784;DHT22;5949;40.386;18.150;2022-07-17T08:22:47;33.30;94.00
11784;DHT22;5949;40.386;18.150;2022-07-17T08:25:15;33.30;94.60
11784;DHT22;5949;40.386;18.150;2022-07-17T08:27:43;33.80;94.80
11784;DHT22;5949;40.386;18.150;2022-07-17T08:30:12;33.40;94.00
11784;DHT22;5949;40.386;18.150;2022-07-17T08:32:41;33.30;93.10
11784;DHT22;5949;40.386;18.150;2022-07-17T08:35:10;33.60;94.00
11784;DHT22;5949;40.386;18.150;2022-07-17T08:37:46;33.80;94.40
11784;DHT22;5949;40.386;18.150;2022-07-17T08:40:22;33.50;93.90
11784;DHT22;5949;40.386;18.150;2022-07-17T08:42:50;33.20;95.50
11784;DHT22;5949;40.386;18.150;2022-07-17T08:45:18;33.60;94.40
11784;DHT22;5949;40.386;18.150;2022-07-17T08:47:48;33.60;94.80
11784;DHT22;5949;40.386;18.150;2022-07-17T08:50:22;33.60;94.20
11784;DHT22;5949;40.386;18.150;2022-07-17T08:52:50;33.80;93.20
11784;DHT22;5949;40.386;18.150;2022-07-17T08:55:18;33.90;93.90
11784;DHT22;5949;40.386;18.150;2022-07-17T08:57:46;33.60;92.90
11784;DHT22;5949;40.386;18.150;2022-07-17T09:00:15;33.70;92.40
11784;DHT22;5949;40.386;18.150;2022-07-17T09:02:57;33.30;91.80
11784;DHT22;5949;40.386;18.150;2022-07-17T09:05:27;33.60;91.30
11784;DHT22;5949;40.386;18.150;2022-07-17T09:07:55;33.10;92.20
11784;DHT22;5949;40.386;18.150;2022-07-17T09:10:36;33.20;92.10
11784;DHT22;5949;40.386;18.150;2022-07-17T09:13:15;33.10;92.20
11784;DHT22;5949;40.386;18.150;2022-07-17T09:15:44;33.20;93.00
11784;DHT22;5949;40.386;18.150;2022-07-17T09:18:14;33.00;94.10
11784;DHT22;5949;40.386;18.150;2022-07-17T09:20:47;33.00;92.60
11784;DHT22;5949;40.386;18.150;2022-07-17T09:23:17;32.80;92.30
11784;DHT22;5949;40.386;18.150;2022-07-17T09:25:47;33.20;92.00
11784;DHT22;5949;40.386;18.150;2022-07-17T09:28:15;33.50;91.80
11784;DHT22;5949;40.386;18.150;2022-07-17T09:30:45;33.50;91.30
11784;DHT22;5949;40.386;18.150;2022-07-17T09:33:15;33.50;92.00
11784;DHT22;5949;40.386;18.150;2022-07-17T09:35:50;33.20;94.70
11784;DHT22;5949;40.386;18.150;2022-07-17T09:38:29;33.40;92.50
11784;DHT22;5949;40.386;18.150;2022-07-17T09:41:08;33.20;91.30
11784;DHT22;5949;40.386;18.150;2022-07-17T09:43:48;33.50;91.70
11784;DHT22;5949;40.386;18.150;2022-07-17T09:46:18;33.60;88.70
11784;DHT22;5949;40.386;18.150;2022-07-17T09:48:49;33.50;88.90
11784;DHT22;5949;40.386;18.150;2022-07-17T09:51:22;33.60;90.80
11784;DHT22;5949;40.386;18.150;2022-07-17T09:53:52;33.80;89.90
11784;DHT22;5949;40.386;18.150;2022-07-17T09:56:21;33.50;90.80
11784;DHT22;5949;40.386;18.150;2022-07-17T09:58:50;33.60;90.40
11784;DHT22;5949;40.386;18.150;2022-07-17T10:01:18;33.50;87.50
11784;DHT22;5949;40.386;18.150;2022-07-17T10:03:47;33.60;87.00
11784;DHT22;5949;40.386;18.150;2022-07-17T10:06:17;33.70;87.70
11784;DHT22;5949;40.386;18.150;2022-07-17T10:08:45;34.10;86.50
11784;DHT22;5949;40.386;18.150;2022-07-17T10:11:13;33.80;81.10
11784;DHT22;5949;40.386;18.150;2022-07-17T10:13:44;33.70;81.80
11784;DHT22;5949;40.386;18.150;2022-07-17T10:16:12;33.60;79.40
11784;DHT22;5949;40.386;18.150;2022-07-17T10:18:42;34.10;80.10
11784;DHT22;5949;40.386;18.150;2022-07-17T10:21:16;33.70;80.10
11784;DHT22;5949;40.386;18.150;2022-07-17T10:23:48;33.90;79.70
11784;DHT22;5949;40.386;18.150;2022-07-17T10:26:32;34.10;78.20
11784;DHT22;5949;40.386;18.150;2022-07-17T10:29:00;34.20;77.10
11784;DHT22;5949;40.386;18.150;2022-07-17T10:31:28;34.20;75.30
11784;DHT22;5949;40.386;18.150;2022-07-17T10:33:58;34.30;79.20
11784;DHT22;5949;40.386;18.150;2022-07-17T10:36:40;34.30;78.90
11784;DHT22;5949;40.386;18.150;2022-07-17T10:39:13;33.70;75.80
11784;DHT22;5949;40.386;18.150;2022-07-17T10:41:42;33.80;79.50
11784;DHT22;5949;40.386;18.150;2022-07-17T10:44:10;33.50;79.60
11784;DHT22;5949;40.386;18.150;2022-07-17T10:46:37;33.30;79.70
11784;DHT22;5949;40.386;18.150;2022-07-17T10:49:05;33.50;81.50
11784;DHT22;5949;40.386;18.150;2022-07-17T10:51:33;33.60;82.30
11784;DHT22;5949;40.386;18.150;2022-07-17T10:54:03;33.80;79.30
11784;DHT22;5949;40.386;18.150;2022-07-17T10:56:31;33.50;83.40
11784;DHT22;5949;40.386;18.150;2022-07-17T10:59:01;33.70;78.80
11784;DHT22;5949;40.386;18.150;2022-07-17T11:01:30;33.60;77.80
11784;DHT22;5949;40.386;18.150;2022-07-17T11:03:59;33.80;78.20
11784;DHT22;5949;40.386;18.150;2022-07-17T11:06:29;33.90;80.20
11784;DHT22;5949;40.386;18.150;2022-07-17T11:08:58;33.70;81.20
11784;DHT22;5949;40.386;18.150;2022-07-17T11:11:37;33.60;81.80
11784;DHT22;5949;40.386;18.150;2022-07-17T11:14:10;33.40;80.50
11784;DHT22;5949;40.386;18.150;2022-07-17T11:16:43;33.30;81.50
11784;DHT22;5949;40.386;18.150;2022-07-17T11:19:11;33.40;80.30
11784;DHT22;5949;40.386;18.150;2022-07-17T11:21:49;33.60;79.70
11784;DHT22;5949;40.386;18.150;2022-07-17T11:24:17;33.60;79.20
11784;DHT22;5949;40.386;18.150;2022-07-17T11:26:49;33.60;77.90
11784;DHT22;5949;40.386;18.150;2022-07-17T11:29:17;33.60;76.00
11784;DHT22;5949;40.386;18.150;2022-07-17T11:31:45;33.30;75.60
11784;DHT22;5949;40.386;18.150;2022-07-17T11:34:12;33.60;75.60
11784;DHT22;5949;40.386;18.150;2022-07-17T11:36:42;33.40;73.90
11784;DHT22;5949;40.386;18.150;2022-07-17T11:39:11;33.50;74.70
11784;DHT22;5949;40.386;18.150;2022-07-17T11:41:41;33.60;75.50
11784;DHT22;5949;40.386;18.150;2022-07-17T11:44:12;33.50;74.20
11784;DHT22;5949;40.386;18.150;2022-07-17T11:46:42;33.60;75.90
11784;DHT22;5949;40.386;18.150;2022-07-17T11:49:11;33.60;74.90
11784;DHT22;5949;40.386;18.150;2022-07-17T11:51:40;33.60;75.00
11784;DHT22;5949;40.386;18.150;2022-07-17T11:54:10;33.90;76.80
11784;DHT22;5949;40.386;18.150;2022-07-17T11:56:38;33.60;78.10
11784;DHT22;5949;40.386;18.150;2022-07-17T11:59:06;33.50;80.10
11784;DHT22;5949;40.386;18.150;2022-07-17T12:01:44;33.40;80.00
11784;DHT22;5949;40.386;18.150;2022-07-17T12:04:13;33.60;81.00
11784;DHT22;5949;40.386;18.150;2022-07-17T12:06:40;33.60;80.90
11784;DHT22;5949;40.386;18.150;2022-07-17T12:09:08;33.30;80.90
11784;DHT22;5949;40.386;18.150;2022-07-17T12:11:46;33.30;81.50
11784;DHT22;5949;40.386;18.150;2022-07-17T12:14:13;33.50;81.30
11784;DHT22;5949;40.386;18.150;2022-07-17T12:16:42;33.30;80.30
11784;DHT22;5949;40.386;18.150;2022-07-17T12:19:11;33.40;81.20
11784;DHT22;5949;40.386;18.150;2022-07-17T12:21:53;33.20;81.30
11784;DHT22;5949;40.386;18.150;2022-07-17T12:24:23;33.40;82.50
11784;DHT22;5949;40.386;18.150;2022-07-17T12:26:52;33.30;82.20
11784;DHT22;5949;40.386;18.150;2022-07-17T12:29:21;33.50;83.10
11784;DHT22;5949;40.386;18.150;2022-07-17T12:32:00;33.30;82.10
11784;DHT22;5949;40.386;18.150;2022-07-17T12:34:28;33.50;81.80
11784;DHT22;5949;40.386;18.150;2022-07-17T12:36:56;33.40;81.70
11784;DHT22;5949;40.386;18.150;2022-07-17T12:39:23;33.20;82.10
11784;DHT22;5949;40.386;18.150;2022-07-17T12:41:51;33.30;83.90
11784;DHT22;5949;40.386;18.150;2022-07-17T12:44:18;33.40;83.60
11784;DHT22;5949;40.386;18.150;2022-07-17T12:46:46;33.40;83.40
11784;DHT22;5949;40.386;18.150;2022-07-17T12:49:15;33.30;84.30
11784;DHT22;5949;40.386;18.150;2022-07-17T12:51:43;33.30;82.90
11784;DHT22;5949;40.386;18.150;2022-07-17T12:54:10;33.40;83.60
11784;DHT22;5949;40.386;18.150;2022-07-17T12:56:38;33.40;83.60
11784;DHT22;5949;40.386;18.150;2022-07-17T12:59:06;33.30;83.90
11784;DHT22;5949;40.386;18.150;2022-07-17T13:01:33;33.30;84.20
11784;DHT22;5949;40.386;18.150;2022-07-17T13:04:01;33.30;84.10
11784;DHT22;5949;40.386;18.150;2022-07-17T13:06:30;33.60;83.40
11784;DHT22;5949;40.386;18.150;2022-07-17T13:08:58;33.70;84.70
11784;DHT22;5949;40.386;18.150;2022-07-17T13:11:26;33.60;85.80
11784;DHT22;5949;40.386;18.150;2022-07-17T13:13:54;33.50;85.10
11784;DHT22;5949;40.386;18.150;2022-07-17T13:16:22;33.20;84.50
11784;DHT22;5949;40.386;18.150;2022-07-17T13:18:50;33.30;87.90
11784;DHT22;5949;40.386;18.150;2022-07-17T13:21:17;33.30;83.90
11784;DHT22;5949;40.386;18.150;2022-07-17T13:23:46;33.30;82.60
11784;DHT22;5949;40.386;18.150;2022-07-17T13:26:14;33.30;82.80
11784;DHT22;5949;40.386;18.150;2022-07-17T13:28:41;33.20;83.10
11784;DHT22;5949;40.386;18.150;2022-07-17T13:31:09;33.40;82.40
11784;DHT22;5949;40.386;18.150;2022-07-17T13:33:36;33.70;80.10
11784;DHT22;5949;40.386;18.150;2022-07-17T13:36:04;33.60;78.80
11784;DHT22;5949;40.386;18.150;2022-07-17T13:38:32;33.60;79.50
11784;DHT22;5949;40.386;18.150;2022-07-17T13:41:01;33.50;79.50
11784;DHT22;5949;40.386;18.150;2022-07-17T13:43:29;33.50;77.70
11784;DHT22;5949;40.386;18.150;2022-07-17T13:45:56;33.50;76.50
11784;DHT22;5949;40.386;18.150;2022-07-17T13:48:24;33.60;75.80
11784;DHT22;5949;40.386;18.150;2022-07-17T13:50:52;33.50;76.70
11784;DHT22;5949;40.386;18.150;2022-07-17T13:53:19;33.40;76.10
11784;DHT22;5949;40.386;18.150;2022-07-17T13:55:47;33.60;75.80
11784;DHT22;5949;40.386;18.150;2022-07-17T13:58:16;33.40;73.90
11784;DHT22;5949;40.386;18.150;2022-07-17T14:00:45;33.60;74.80
11784;DHT22;5949;40.386;18.150;2022-07-17T14:03:12;33.80;73.00
11784;DHT22;5949;40.386;18.150;2022-07-17T14:05:40;33.70;73.30
11784;DHT22;5949;40.386;18.150;2022-07-17T14:08:08;33.80;72.90
11784;DHT22;5949;40.386;18.150;2022-07-17T14:10:36;33.50;73.50
11784;DHT22;5949;40.386;18.150;2022-07-17T14:13:03;33.30;72.70
11784;DHT22;5949;40.386;18.150;2022-07-17T14:15:33;33.50;72.90
11784;DHT22;5949;40.386;18.150;2022-07-17T14:18:01;33.50;71.60
11784;DHT22;5949;40.386;18.150;2022-07-17T14:20:29;33.30;73.90
11784;DHT22;5949;40.386;18.150;2022-07-17T14:22:56;33.60;73.80
11784;DHT22;5949;40.386;18.150;2022-07-17T14:25:24;33.50;73.90
11784;DHT22;5949;40.386;18.150;2022-07-17T14:27:52;33.60;74.90
11784;DHT22;5949;40.386;18.150;2022-07-17T14:30:19;33.40;74.60
11784;DHT22;5949;40.386;18.150;2022-07-17T14:32:48;33.40;74.90
11784;DHT22;5949;40.386;18.150;2022-07-17T14:35:16;33.30;73.10
11784;DHT22;5949;40.386;18.150;2022-07-17T14:37:44;33.50;73.40
11784;DHT22;5949;40.386;18.150;2022-07-17T14:40:12;33.40;72.00
11784;DHT22;5949;40.386;18.150;2022-07-17T14:42:40;33.50;73.70
11784;DHT22;5949;40.386;18.150;2022-07-17T14:45:09;33.60;72.90
11784;DHT22;5949;40.386;18.150;2022-07-17T14:47:39;33.50;72.70
11784;DHT22;5949;40.386;18.150;2022-07-17T14:50:09;33.30;73.60
11784;DHT22;5949;40.386;18.150;2022-07-17T14:52:37;33.50;72.60
11784;DHT22;5949;40.386;18.150;2022-07-17T14:55:06;33.50;73.20
11784;DHT22;5949;40.386;18.150;2022-07-17T14:57:33;33.30;73.30
11784;DHT22;5949;40.386;18.150;2022-07-17T15:00:01;33.40;73.00
11784;DHT22;5949;40.386;18.150;2022-07-17T15:02:29;33.60;72.80
11784;DHT22;5949;40.386;18.150;2022-07-17T15:04:58;33.50;72.50
11784;DHT22;5949;40.386;18.150;2022-07-17T15:07:27;33.30;71.60
11784;DHT22;5949;40.386;18.150;2022-07-17T15:09:55;33.40;72.10
11784;DHT22;5949;40.386;18.150;2022-07-17T15:12:22;33.40;71.40
11784;DHT22;5949;40.386;18.150;2022-07-17T15:14:50;33.50;71.20
11784;DHT22;5949;40.386;18.150;2022-07-17T15:17:18;33.60;71.20
11784;DHT22;5949;40.386;18.150;2022-07-17T15:19:45;33.50;71.30
11784;DHT22;5949;40.386;18.150;2022-07-17T15:22:13;33.50;70.00
11784;DHT22;5949;40.386;18.150;2022-07-17T15:24:42;33.30;70.40
11784;DHT22;5949;40.386;18.150;2022-07-17T15:27:11;33.30;70.60
11784;DHT22;5949;40.386;18.150;2022-07-17T15:29:38;33.40;69.90
11784;DHT22;5949;40.386;18.150;2022-07-17T15:32:06;33.40;70.70
11784;DHT22;5949;40.386;18.150;2022-07-17T15:34:34;33.40;70.80
11784;DHT22;5949;40.386;18.150;2022-07-17T15:37:03;33.40;71.20
11784;DHT22;5949;40.386;18.150;2022-07-17T15:39:31;33.20;70.20